Overland Park, Kansas
Current Conditions -  °F | °C
As of 9:53 PM on Thursday 27 Nov 2014 (Local Time) from KOJC Reporting Station
Clear Clear  
Wind Chill: 22°   Ceiling: Unl
Heat Index: 29°   Visibility: 8mi
Dew Point: 23°   Wind: 7mph
Humidity: 78%   Direction: 150°SSE
Pressure: 30.28"   Gusts: NA
Location:  38.98°N, 94.67°W
Report Text: KOJC 280353Z AUTO 15006KT 8SM CLR M02/M05 A3028 RMK AO2 SLP267 T10171050
Loading
Personal Weather Stations






























Interactive Weather Map New forecast layout! Learn more

10-Day Weather Forecast

Advertisements
Track Severe Weather on mobile